sensor_id;sensor_type;location;lat;lon;timestamp;P1;durP1;ratioP1;P2;durP2;ratioP2
15645;SDS011;7922;43.622;1.476;2024-03-02T00:00:41;10.37;;;8.37;;
15645;SDS011;7922;43.622;1.476;2024-03-02T00:03:06;10.07;;;7.93;;
15645;SDS011;7922;43.622;1.476;2024-03-02T00:05:32;10.33;;;8.00;;
15645;SDS011;7922;43.622;1.476;2024-03-02T00:07:57;13.40;;;8.43;;
15645;SDS011;7922;43.622;1.476;2024-03-02T00:10:27;12.67;;;8.93;;
15645;SDS011;7922;43.622;1.476;2024-03-02T00:12:59;10.13;;;8.20;;
15645;SDS011;7922;43.622;1.476;2024-03-02T00:18:17;10.40;;;8.33;;
15645;SDS011;7922;43.622;1.476;2024-03-02T00:20:44;12.37;;;8.93;;
15645;SDS011;7922;43.622;1.476;2024-03-02T00:23:10;12.63;;;8.93;;
15645;SDS011;7922;43.622;1.476;2024-03-02T00:30:51;12.90;;;9.77;;
15645;SDS011;7922;43.622;1.476;2024-03-02T00:33:26;14.13;;;11.17;;
15645;SDS011;7922;43.622;1.476;2024-03-02T00:35:53;14.77;;;12.37;;
15645;SDS011;7922;43.622;1.476;2024-03-02T00:38:18;18.10;;;12.53;;
15645;SDS011;7922;43.622;1.476;2024-03-02T00:40:44;14.07;;;11.53;;
15645;SDS011;7922;43.622;1.476;2024-03-02T00:46:07;12.57;;;10.07;;
15645;SDS011;7922;43.622;1.476;2024-03-02T00:48:32;13.43;;;9.97;;
15645;SDS011;7922;43.622;1.476;2024-03-02T00:50:58;10.83;;;9.03;;
15645;SDS011;7922;43.622;1.476;2024-03-02T00:53:24;11.77;;;9.57;;
15645;SDS011;7922;43.622;1.476;2024-03-02T00:55:52;11.97;;;9.87;;
15645;SDS011;7922;43.622;1.476;2024-03-02T00:58:17;13.83;;;9.97;;
15645;SDS011;7922;43.622;1.476;2024-03-02T01:00:42;11.00;;;9.80;;
15645;SDS011;7922;43.622;1.476;2024-03-02T01:03:08;12.07;;;9.60;;
15645;SDS011;7922;43.622;1.476;2024-03-02T01:05:33;11.30;;;9.23;;
15645;SDS011;7922;43.622;1.476;2024-03-02T01:07:58;13.77;;;9.60;;
15645;SDS011;7922;43.622;1.476;2024-03-02T01:10:24;11.07;;;9.10;;
15645;SDS011;7922;43.622;1.476;2024-03-02T01:12:49;10.23;;;8.67;;
15645;SDS011;7922;43.622;1.476;2024-03-02T01:15:14;11.70;;;8.90;;
15645;SDS011;7922;43.622;1.476;2024-03-02T01:17:40;12.23;;;9.67;;
15645;SDS011;7922;43.622;1.476;2024-03-02T01:20:07;10.83;;;9.50;;
15645;SDS011;7922;43.622;1.476;2024-03-02T01:22:33;12.47;;;8.93;;
15645;SDS011;7922;43.622;1.476;2024-03-02T01:24:58;10.80;;;8.87;;
15645;SDS011;7922;43.622;1.476;2024-03-02T01:27:24;13.87;;;11.17;;
15645;SDS011;7922;43.622;1.476;2024-03-02T01:29:49;12.30;;;10.47;;
15645;SDS011;7922;43.622;1.476;2024-03-02T01:32:14;12.03;;;8.97;;
15645;SDS011;7922;43.622;1.476;2024-03-02T01:34:40;10.07;;;8.33;;
15645;SDS011;7922;43.622;1.476;2024-03-02T01:37:05;7.93;;;7.13;;
15645;SDS011;7922;43.622;1.476;2024-03-02T01:39:30;9.50;;;7.03;;
15645;SDS011;7922;43.622;1.476;2024-03-02T01:41:56;9.73;;;7.40;;
15645;SDS011;7922;43.622;1.476;2024-03-02T01:44:21;7.80;;;6.80;;
15645;SDS011;7922;43.622;1.476;2024-03-02T01:46:46;9.07;;;6.83;;
15645;SDS011;7922;43.622;1.476;2024-03-02T01:49:11;10.90;;;7.97;;
15645;SDS011;7922;43.622;1.476;2024-03-02T01:51:37;9.10;;;7.63;;
15645;SDS011;7922;43.622;1.476;2024-03-02T01:54:02;9.70;;;7.17;;
15645;SDS011;7922;43.622;1.476;2024-03-02T01:56:27;8.90;;;7.13;;
15645;SDS011;7922;43.622;1.476;2024-03-02T01:58:53;8.63;;;7.57;;
15645;SDS011;7922;43.622;1.476;2024-03-02T02:01:18;9.77;;;7.20;;
15645;SDS011;7922;43.622;1.476;2024-03-02T02:03:43;10.40;;;8.27;;
15645;SDS011;7922;43.622;1.476;2024-03-02T02:06:09;10.77;;;7.90;;
15645;SDS011;7922;43.622;1.476;2024-03-02T02:08:36;9.20;;;7.80;;
15645;SDS011;7922;43.622;1.476;2024-03-02T02:11:02;9.90;;;8.17;;
15645;SDS011;7922;43.622;1.476;2024-03-02T02:13:27;10.10;;;7.67;;
15645;SDS011;7922;43.622;1.476;2024-03-02T02:15:53;9.20;;;8.20;;
15645;SDS011;7922;43.622;1.476;2024-03-02T02:18:18;9.00;;;7.63;;
15645;SDS011;7922;43.622;1.476;2024-03-02T02:20:43;8.70;;;7.50;;
15645;SDS011;7922;43.622;1.476;2024-03-02T02:23:08;8.80;;;7.87;;
15645;SDS011;7922;43.622;1.476;2024-03-02T02:25:34;11.77;;;8.40;;
15645;SDS011;7922;43.622;1.476;2024-03-02T02:27:59;9.93;;;7.83;;
15645;SDS011;7922;43.622;1.476;2024-03-02T02:32:51;11.50;;;8.93;;
15645;SDS011;7922;43.622;1.476;2024-03-02T02:35:16;10.50;;;8.77;;
15645;SDS011;7922;43.622;1.476;2024-03-02T02:37:42;11.23;;;8.53;;
15645;SDS011;7922;43.622;1.476;2024-03-02T02:40:08;11.57;;;8.43;;
15645;SDS011;7922;43.622;1.476;2024-03-02T02:42:34;9.67;;;8.27;;
15645;SDS011;7922;43.622;1.476;2024-03-02T02:44:59;12.77;;;8.33;;
15645;SDS011;7922;43.622;1.476;2024-03-02T02:47:25;8.60;;;7.40;;
15645;SDS011;7922;43.622;1.476;2024-03-02T02:49:50;11.33;;;8.00;;
15645;SDS011;7922;43.622;1.476;2024-03-02T02:52:16;10.10;;;7.67;;
15645;SDS011;7922;43.622;1.476;2024-03-02T02:54:41;10.40;;;7.30;;
15645;SDS011;7922;43.622;1.476;2024-03-02T02:57:06;10.83;;;7.33;;
15645;SDS011;7922;43.622;1.476;2024-03-02T02:59:32;8.87;;;7.97;;
15645;SDS011;7922;43.622;1.476;2024-03-02T03:01:57;11.57;;;8.07;;
15645;SDS011;7922;43.622;1.476;2024-03-02T03:04:22;10.17;;;7.43;;
15645;SDS011;7922;43.622;1.476;2024-03-02T03:06:49;10.77;;;8.10;;
15645;SDS011;7922;43.622;1.476;2024-03-02T03:09:14;9.10;;;8.20;;
15645;SDS011;7922;43.622;1.476;2024-03-02T03:11:39;9.53;;;8.53;;
15645;SDS011;7922;43.622;1.476;2024-03-02T03:14:04;10.57;;;8.63;;
15645;SDS011;7922;43.622;1.476;2024-03-02T03:16:30;9.70;;;7.70;;
15645;SDS011;7922;43.622;1.476;2024-03-02T03:18:55;11.27;;;7.73;;
15645;SDS011;7922;43.622;1.476;2024-03-02T03:21:20;9.47;;;8.00;;
15645;SDS011;7922;43.622;1.476;2024-03-02T03:23:46;9.30;;;7.30;;
15645;SDS011;7922;43.622;1.476;2024-03-02T03:26:11;10.40;;;7.87;;
15645;SDS011;7922;43.622;1.476;2024-03-02T03:28:36;10.17;;;7.87;;
15645;SDS011;7922;43.622;1.476;2024-03-02T03:31:02;7.60;;;6.80;;
15645;SDS011;7922;43.622;1.476;2024-03-02T03:33:27;8.43;;;7.53;;
15645;SDS011;7922;43.622;1.476;2024-03-02T03:35:52;10.47;;;7.60;;
15645;SDS011;7922;43.622;1.476;2024-03-02T03:38:18;8.10;;;6.63;;
15645;SDS011;7922;43.622;1.476;2024-03-02T03:40:43;9.03;;;7.07;;
15645;SDS011;7922;43.622;1.476;2024-03-02T03:43:08;8.53;;;7.33;;
15645;SDS011;7922;43.622;1.476;2024-03-02T03:45:33;9.87;;;7.17;;
15645;SDS011;7922;43.622;1.476;2024-03-02T03:47:59;9.50;;;6.93;;
15645;SDS011;7922;43.622;1.476;2024-03-02T03:50:24;9.07;;;7.57;;
15645;SDS011;7922;43.622;1.476;2024-03-02T03:52:49;8.03;;;7.23;;
15645;SDS011;7922;43.622;1.476;2024-03-02T03:55:15;10.53;;;7.63;;
15645;SDS011;7922;43.622;1.476;2024-03-02T03:57:40;8.80;;;7.47;;
15645;SDS011;7922;43.622;1.476;2024-03-02T04:00:05;8.43;;;7.60;;
15645;SDS011;7922;43.622;1.476;2024-03-02T04:02:31;11.57;;;7.77;;
15645;SDS011;7922;43.622;1.476;2024-03-02T04:04:56;8.20;;;7.40;;
15645;SDS011;7922;43.622;1.476;2024-03-02T04:07:22;8.63;;;7.67;;
15645;SDS011;7922;43.622;1.476;2024-03-02T04:09:47;7.87;;;7.00;;
15645;SDS011;7922;43.622;1.476;2024-03-02T04:12:12;10.30;;;7.17;;
15645;SDS011;7922;43.622;1.476;2024-03-02T04:14:37;8.17;;;6.90;;
15645;SDS011;7922;43.622;1.476;2024-03-02T04:17:03;10.23;;;7.90;;
15645;SDS011;7922;43.622;1.476;2024-03-02T04:19:28;8.80;;;7.10;;
15645;SDS011;7922;43.622;1.476;2024-03-02T04:21:54;9.90;;;7.03;;
15645;SDS011;7922;43.622;1.476;2024-03-02T04:24:19;9.53;;;7.27;;
15645;SDS011;7922;43.622;1.476;2024-03-02T04:26:44;7.80;;;7.00;;
15645;SDS011;7922;43.622;1.476;2024-03-02T04:29:09;10.60;;;8.03;;
15645;SDS011;7922;43.622;1.476;2024-03-02T04:31:35;8.37;;;6.83;;
15645;SDS011;7922;43.622;1.476;2024-03-02T04:34:00;8.37;;;7.30;;
15645;SDS011;7922;43.622;1.476;2024-03-02T04:36:25;9.00;;;7.50;;
15645;SDS011;7922;43.622;1.476;2024-03-02T04:38:51;12.30;;;7.80;;
15645;SDS011;7922;43.622;1.476;2024-03-02T04:41:16;8.17;;;6.90;;
15645;SDS011;7922;43.622;1.476;2024-03-02T04:43:42;8.33;;;6.83;;
15645;SDS011;7922;43.622;1.476;2024-03-02T04:46:07;7.67;;;6.87;;
15645;SDS011;7922;43.622;1.476;2024-03-02T04:48:33;10.73;;;6.57;;
15645;SDS011;7922;43.622;1.476;2024-03-02T04:50:58;8.23;;;6.90;;
15645;SDS011;7922;43.622;1.476;2024-03-02T04:53:24;8.97;;;6.90;;
15645;SDS011;7922;43.622;1.476;2024-03-02T04:55:49;7.30;;;5.80;;
15645;SDS011;7922;43.622;1.476;2024-03-02T04:58:14;7.07;;;6.00;;
15645;SDS011;7922;43.622;1.476;2024-03-02T05:00:40;8.63;;;6.50;;
15645;SDS011;7922;43.622;1.476;2024-03-02T05:03:05;8.73;;;6.57;;
15645;SDS011;7922;43.622;1.476;2024-03-02T05:05:30;8.13;;;5.93;;
15645;SDS011;7922;43.622;1.476;2024-03-02T05:07:55;8.27;;;6.47;;
15645;SDS011;7922;43.622;1.476;2024-03-02T05:10:21;6.97;;;6.27;;
15645;SDS011;7922;43.622;1.476;2024-03-02T05:12:46;8.50;;;5.60;;
15645;SDS011;7922;43.622;1.476;2024-03-02T05:15:12;8.10;;;5.37;;
15645;SDS011;7922;43.622;1.476;2024-03-02T05:17:39;6.60;;;5.90;;
15645;SDS011;7922;43.622;1.476;2024-03-02T05:20:08;8.13;;;5.63;;
15645;SDS011;7922;43.622;1.476;2024-03-02T05:22:50;7.20;;;6.00;;
15645;SDS011;7922;43.622;1.476;2024-03-02T05:25:16;7.93;;;5.87;;
15645;SDS011;7922;43.622;1.476;2024-03-02T05:27:41;7.20;;;5.83;;
15645;SDS011;7922;43.622;1.476;2024-03-02T05:30:06;7.97;;;5.60;;
15645;SDS011;7922;43.622;1.476;2024-03-02T05:32:33;7.10;;;5.60;;
15645;SDS011;7922;43.622;1.476;2024-03-02T05:34:58;6.47;;;5.20;;
15645;SDS011;7922;43.622;1.476;2024-03-02T05:37:24;7.60;;;5.37;;
15645;SDS011;7922;43.622;1.476;2024-03-02T05:39:49;6.50;;;4.70;;
15645;SDS011;7922;43.622;1.476;2024-03-02T05:42:14;8.80;;;5.83;;
15645;SDS011;7922;43.622;1.476;2024-03-02T05:44:39;5.93;;;5.33;;
15645;SDS011;7922;43.622;1.476;2024-03-02T05:47:05;7.50;;;6.10;;
15645;SDS011;7922;43.622;1.476;2024-03-02T05:49:30;6.70;;;5.30;;
15645;SDS011;7922;43.622;1.476;2024-03-02T05:51:55;6.03;;;5.40;;
15645;SDS011;7922;43.622;1.476;2024-03-02T05:54:21;7.20;;;5.17;;
15645;SDS011;7922;43.622;1.476;2024-03-02T05:56:46;6.43;;;5.00;;
15645;SDS011;7922;43.622;1.476;2024-03-02T05:59:12;6.43;;;5.07;;
15645;SDS011;7922;43.622;1.476;2024-03-02T06:01:38;6.50;;;4.87;;
15645;SDS011;7922;43.622;1.476;2024-03-02T06:04:04;7.77;;;5.37;;
15645;SDS011;7922;43.622;1.476;2024-03-02T06:06:29;5.60;;;4.80;;
15645;SDS011;7922;43.622;1.476;2024-03-02T06:08:54;5.53;;;4.50;;
15645;SDS011;7922;43.622;1.476;2024-03-02T06:11:19;5.80;;;4.70;;
15645;SDS011;7922;43.622;1.476;2024-03-02T06:13:45;7.33;;;5.00;;
15645;SDS011;7922;43.622;1.476;2024-03-02T06:16:10;5.87;;;4.07;;
15645;SDS011;7922;43.622;1.476;2024-03-02T06:18:35;7.47;;;4.40;;
15645;SDS011;7922;43.622;1.476;2024-03-02T06:21:01;5.27;;;4.67;;
15645;SDS011;7922;43.622;1.476;2024-03-02T06:23:27;6.23;;;4.70;;
15645;SDS011;7922;43.622;1.476;2024-03-02T06:25:52;5.43;;;4.87;;
15645;SDS011;7922;43.622;1.476;2024-03-02T06:28:17;5.37;;;4.33;;
15645;SDS011;7922;43.622;1.476;2024-03-02T06:30:43;5.80;;;4.33;;
15645;SDS011;7922;43.622;1.476;2024-03-02T06:33:08;5.53;;;4.60;;
15645;SDS011;7922;43.622;1.476;2024-03-02T06:35:34;7.30;;;4.53;;
15645;SDS011;7922;43.622;1.476;2024-03-02T06:37:59;4.90;;;4.07;;
15645;SDS011;7922;43.622;1.476;2024-03-02T06:40:25;7.20;;;4.70;;
15645;SDS011;7922;43.622;1.476;2024-03-02T06:42:51;5.47;;;4.00;;
15645;SDS011;7922;43.622;1.476;2024-03-02T06:45:16;5.90;;;4.20;;
15645;SDS011;7922;43.622;1.476;2024-03-02T06:47:41;4.70;;;4.20;;
15645;SDS011;7922;43.622;1.476;2024-03-02T06:50:07;4.70;;;3.90;;
15645;SDS011;7922;43.622;1.476;2024-03-02T06:52:33;6.03;;;4.33;;
15645;SDS011;7922;43.622;1.476;2024-03-02T06:54:58;5.83;;;4.27;;
15645;SDS011;7922;43.622;1.476;2024-03-02T06:57:23;4.97;;;4.17;;
15645;SDS011;7922;43.622;1.476;2024-03-02T06:59:48;6.27;;;4.57;;
15645;SDS011;7922;43.622;1.476;2024-03-02T07:02:14;5.00;;;4.10;;
15645;SDS011;7922;43.622;1.476;2024-03-02T07:04:39;4.70;;;4.23;;
15645;SDS011;7922;43.622;1.476;2024-03-02T07:07:04;4.00;;;3.60;;
15645;SDS011;7922;43.622;1.476;2024-03-02T07:09:30;7.23;;;4.67;;
15645;SDS011;7922;43.622;1.476;2024-03-02T07:11:55;6.47;;;3.87;;
15645;SDS011;7922;43.622;1.476;2024-03-02T07:14:20;6.63;;;4.73;;
15645;SDS011;7922;43.622;1.476;2024-03-02T07:16:45;7.20;;;4.87;;
15645;SDS011;7922;43.622;1.476;2024-03-02T07:19:11;6.00;;;5.27;;
15645;SDS011;7922;43.622;1.476;2024-03-02T07:21:36;6.73;;;5.47;;
15645;SDS011;7922;43.622;1.476;2024-03-02T07:24:01;5.17;;;4.40;;
15645;SDS011;7922;43.622;1.476;2024-03-02T07:26:26;6.47;;;4.43;;
15645;SDS011;7922;43.622;1.476;2024-03-02T07:28:52;6.83;;;4.30;;
15645;SDS011;7922;43.622;1.476;2024-03-02T07:31:17;6.57;;;4.10;;
15645;SDS011;7922;43.622;1.476;2024-03-02T07:33:46;5.73;;;4.10;;
15645;SDS011;7922;43.622;1.476;2024-03-02T07:36:11;5.50;;;3.90;;
15645;SDS011;7922;43.622;1.476;2024-03-02T07:38:37;7.17;;;3.93;;
15645;SDS011;7922;43.622;1.476;2024-03-02T07:41:02;5.67;;;3.67;;
15645;SDS011;7922;43.622;1.476;2024-03-02T07:43:28;5.23;;;4.30;;
15645;SDS011;7922;43.622;1.476;2024-03-02T07:45:53;4.43;;;3.93;;
15645;SDS011;7922;43.622;1.476;2024-03-02T07:48:18;8.73;;;4.00;;
15645;SDS011;7922;43.622;1.476;2024-03-02T07:50:44;5.80;;;4.30;;
15645;SDS011;7922;43.622;1.476;2024-03-02T07:53:09;4.63;;;3.70;;
15645;SDS011;7922;43.622;1.476;2024-03-02T07:55:34;7.57;;;3.87;;
15645;SDS011;7922;43.622;1.476;2024-03-02T07:58:00;5.47;;;3.70;;
15645;SDS011;7922;43.622;1.476;2024-03-02T08:00:26;5.67;;;3.80;;
15645;SDS011;7922;43.622;1.476;2024-03-02T08:02:51;6.10;;;4.10;;
15645;SDS011;7922;43.622;1.476;2024-03-02T08:05:17;7.73;;;4.10;;
15645;SDS011;7922;43.622;1.476;2024-03-02T08:07:43;8.67;;;3.73;;
15645;SDS011;7922;43.622;1.476;2024-03-02T08:10:09;4.57;;;3.80;;
15645;SDS011;7922;43.622;1.476;2024-03-02T08:12:35;5.13;;;4.53;;
15645;SDS011;7922;43.622;1.476;2024-03-02T08:15:00;4.00;;;3.60;;
15645;SDS011;7922;43.622;1.476;2024-03-02T08:17:25;5.43;;;3.80;;
15645;SDS011;7922;43.622;1.476;2024-03-02T08:19:51;6.13;;;4.20;;
15645;SDS011;7922;43.622;1.476;2024-03-02T08:22:16;4.00;;;3.60;;
15645;SDS011;7922;43.622;1.476;2024-03-02T08:24:42;5.13;;;4.00;;
15645;SDS011;7922;43.622;1.476;2024-03-02T08:27:07;6.37;;;2.87;;
15645;SDS011;7922;43.622;1.476;2024-03-02T08:29:32;5.67;;;4.23;;
15645;SDS011;7922;43.622;1.476;2024-03-02T08:31:58;5.30;;;3.90;;
15645;SDS011;7922;43.622;1.476;2024-03-02T08:34:23;5.00;;;3.43;;
15645;SDS011;7922;43.622;1.476;2024-03-02T08:36:48;5.63;;;3.60;;
15645;SDS011;7922;43.622;1.476;2024-03-02T08:39:14;6.63;;;3.87;;
15645;SDS011;7922;43.622;1.476;2024-03-02T08:41:39;5.00;;;3.47;;
15645;SDS011;7922;43.622;1.476;2024-03-02T08:44:05;3.77;;;2.90;;
15645;SDS011;7922;43.622;1.476;2024-03-02T08:46:30;4.70;;;3.40;;
15645;SDS011;7922;43.622;1.476;2024-03-02T08:48:55;4.07;;;2.83;;
15645;SDS011;7922;43.622;1.476;2024-03-02T08:51:21;4.03;;;2.70;;
15645;SDS011;7922;43.622;1.476;2024-03-02T08:53:46;4.40;;;2.27;;
15645;SDS011;7922;43.622;1.476;2024-03-02T08:56:11;3.67;;;2.80;;
15645;SDS011;7922;43.622;1.476;2024-03-02T08:58:36;4.10;;;2.60;;
15645;SDS011;7922;43.622;1.476;2024-03-02T09:01:02;3.93;;;2.57;;
15645;SDS011;7922;43.622;1.476;2024-03-02T09:03:27;3.20;;;2.33;;
15645;SDS011;7922;43.622;1.476;2024-03-02T09:05:53;2.93;;;2.20;;
15645;SDS011;7922;43.622;1.476;2024-03-02T09:08:18;5.33;;;2.80;;
15645;SDS011;7922;43.622;1.476;2024-03-02T09:10:43;5.20;;;2.57;;
15645;SDS011;7922;43.622;1.476;2024-03-02T09:13:08;4.83;;;2.50;;
15645;SDS011;7922;43.622;1.476;2024-03-02T09:15:34;3.63;;;2.30;;
15645;SDS011;7922;43.622;1.476;2024-03-02T09:17:59;4.97;;;2.60;;
15645;SDS011;7922;43.622;1.476;2024-03-02T09:20:25;5.03;;;2.50;;
15645;SDS011;7922;43.622;1.476;2024-03-02T09:22:50;7.03;;;3.20;;
15645;SDS011;7922;43.622;1.476;2024-03-02T09:25:15;8.10;;;3.40;;
15645;SDS011;7922;43.622;1.476;2024-03-02T09:27:40;4.60;;;3.00;;
15645;SDS011;7922;43.622;1.476;2024-03-02T09:30:09;5.73;;;2.97;;
15645;SDS011;7922;43.622;1.476;2024-03-02T09:32:34;8.87;;;3.67;;
15645;SDS011;7922;43.622;1.476;2024-03-02T09:35:00;6.07;;;3.90;;
15645;SDS011;7922;43.622;1.476;2024-03-02T09:37:25;5.93;;;3.33;;
15645;SDS011;7922;43.622;1.476;2024-03-02T09:39:50;6.73;;;3.90;;
15645;SDS011;7922;43.622;1.476;2024-03-02T09:42:16;8.13;;;3.37;;
15645;SDS011;7922;43.622;1.476;2024-03-02T09:44:42;7.83;;;3.30;;
15645;SDS011;7922;43.622;1.476;2024-03-02T09:47:07;8.23;;;3.70;;
15645;SDS011;7922;43.622;1.476;2024-03-02T09:49:32;8.30;;;3.50;;
15645;SDS011;7922;43.622;1.476;2024-03-02T09:51:58;7.20;;;3.27;;
15645;SDS011;7922;43.622;1.476;2024-03-02T09:54:23;3.90;;;2.73;;
15645;SDS011;7922;43.622;1.476;2024-03-02T09:56:49;5.70;;;2.83;;
15645;SDS011;7922;43.622;1.476;2024-03-02T09:59:15;6.93;;;2.87;;
15645;SDS011;7922;43.622;1.476;2024-03-02T10:01:40;7.20;;;3.30;;
15645;SDS011;7922;43.622;1.476;2024-03-02T10:04:20;6.80;;;3.23;;
15645;SDS011;7922;43.622;1.476;2024-03-02T10:06:46;5.27;;;2.87;;
15645;SDS011;7922;43.622;1.476;2024-03-02T10:09:13;13.77;;;3.03;;
15645;SDS011;7922;43.622;1.476;2024-03-02T10:11:52;3.87;;;3.00;;
15645;SDS011;7922;43.622;1.476;2024-03-02T10:14:17;4.53;;;2.80;;
15645;SDS011;7922;43.622;1.476;2024-03-02T10:16:43;8.70;;;3.00;;
15645;SDS011;7922;43.622;1.476;2024-03-02T10:21:51;6.40;;;2.60;;
15645;SDS011;7922;43.622;1.476;2024-03-02T10:24:18;6.43;;;2.60;;
15645;SDS011;7922;43.622;1.476;2024-03-02T10:26:48;5.60;;;3.20;;
15645;SDS011;7922;43.622;1.476;2024-03-02T10:29:14;6.00;;;3.20;;
15645;SDS011;7922;43.622;1.476;2024-03-02T10:31:41;6.73;;;3.57;;
15645;SDS011;7922;43.622;1.476;2024-03-02T10:34:08;6.80;;;3.27;;
15645;SDS011;7922;43.622;1.476;2024-03-02T10:36:34;4.30;;;3.07;;
15645;SDS011;7922;43.622;1.476;2024-03-02T10:39:04;7.50;;;3.30;;
15645;SDS011;7922;43.622;1.476;2024-03-02T10:41:33;7.33;;;3.57;;
15645;SDS011;7922;43.622;1.476;2024-03-02T10:44:00;8.43;;;3.30;;
15645;SDS011;7922;43.622;1.476;2024-03-02T10:46:28;4.83;;;3.83;;
15645;SDS011;7922;43.622;1.476;2024-03-02T10:48:55;3.73;;;3.37;;
15645;SDS011;7922;43.622;1.476;2024-03-02T10:51:25;8.87;;;3.63;;
15645;SDS011;7922;43.622;1.476;2024-03-02T10:53:51;4.70;;;3.40;;
15645;SDS011;7922;43.622;1.476;2024-03-02T10:56:19;6.13;;;3.40;;
15645;SDS011;7922;43.622;1.476;2024-03-02T10:58:54;7.90;;;3.67;;
15645;SDS011;7922;43.622;1.476;2024-03-02T11:01:26;5.60;;;3.57;;
15645;SDS011;7922;43.622;1.476;2024-03-02T11:03:53;5.43;;;2.67;;
15645;SDS011;7922;43.622;1.476;2024-03-02T11:06:19;6.97;;;3.17;;
15645;SDS011;7922;43.622;1.476;2024-03-02T11:08:47;5.27;;;3.50;;
15645;SDS011;7922;43.622;1.476;2024-03-02T11:11:18;7.57;;;3.40;;
15645;SDS011;7922;43.622;1.476;2024-03-02T11:13:51;6.37;;;3.20;;
15645;SDS011;7922;43.622;1.476;2024-03-02T11:16:31;3.60;;;2.93;;
15645;SDS011;7922;43.622;1.476;2024-03-02T11:18:58;6.83;;;2.83;;
15645;SDS011;7922;43.622;1.476;2024-03-02T11:21:24;7.43;;;3.07;;
15645;SDS011;7922;43.622;1.476;2024-03-02T11:23:50;5.93;;;3.00;;
15645;SDS011;7922;43.622;1.476;2024-03-02T11:28:43;7.17;;;3.00;;
15645;SDS011;7922;43.622;1.476;2024-03-02T11:31:09;6.90;;;2.97;;
15645;SDS011;7922;43.622;1.476;2024-03-02T11:33:34;4.87;;;2.43;;
15645;SDS011;7922;43.622;1.476;2024-03-02T11:35:59;7.13;;;3.10;;
15645;SDS011;7922;43.622;1.476;2024-03-02T11:38:27;5.43;;;2.60;;
15645;SDS011;7922;43.622;1.476;2024-03-02T11:40:53;8.03;;;3.23;;
15645;SDS011;7922;43.622;1.476;2024-03-02T11:43:19;6.70;;;2.70;;
15645;SDS011;7922;43.622;1.476;2024-03-02T11:45:45;8.13;;;3.27;;
15645;SDS011;7922;43.622;1.476;2024-03-02T11:48:14;5.80;;;3.10;;
15645;SDS011;7922;43.622;1.476;2024-03-02T11:50:46;6.43;;;2.73;;
15645;SDS011;7922;43.622;1.476;2024-03-02T11:53:14;5.23;;;2.80;;
15645;SDS011;7922;43.622;1.476;2024-03-02T11:55:39;5.67;;;2.97;;
15645;SDS011;7922;43.622;1.476;2024-03-02T11:58:05;5.20;;;2.87;;
15645;SDS011;7922;43.622;1.476;2024-03-02T12:00:31;5.17;;;2.60;;
15645;SDS011;7922;43.622;1.476;2024-03-02T12:03:15;7.00;;;2.73;;
15645;SDS011;7922;43.622;1.476;2024-03-02T12:05:40;5.07;;;2.60;;
15645;SDS011;7922;43.622;1.476;2024-03-02T12:08:07;7.40;;;3.17;;
15645;SDS011;7922;43.622;1.476;2024-03-02T12:10:33;4.77;;;2.60;;
15645;SDS011;7922;43.622;1.476;2024-03-02T12:13:00;5.80;;;2.87;;
15645;SDS011;7922;43.622;1.476;2024-03-02T12:15:28;4.00;;;2.53;;
15645;SDS011;7922;43.622;1.476;2024-03-02T12:17:55;6.90;;;2.93;;
15645;SDS011;7922;43.622;1.476;2024-03-02T12:20:22;6.20;;;2.60;;
15645;SDS011;7922;43.622;1.476;2024-03-02T12:22:48;5.77;;;2.87;;
15645;SDS011;7922;43.622;1.476;2024-03-02T12:25:13;4.40;;;2.50;;
15645;SDS011;7922;43.622;1.476;2024-03-02T12:27:40;6.57;;;2.87;;
15645;SDS011;7922;43.622;1.476;2024-03-02T12:30:06;6.70;;;2.90;;
15645;SDS011;7922;43.622;1.476;2024-03-02T12:32:32;4.87;;;2.40;;
15645;SDS011;7922;43.622;1.476;2024-03-02T12:34:57;5.53;;;3.10;;
15645;SDS011;7922;43.622;1.476;2024-03-02T12:37:22;3.30;;;2.80;;
15645;SDS011;7922;43.622;1.476;2024-03-02T12:39:48;6.40;;;2.30;;
15645;SDS011;7922;43.622;1.476;2024-03-02T12:42:13;6.57;;;3.37;;
15645;SDS011;7922;43.622;1.476;2024-03-02T12:44:39;3.83;;;2.67;;
15645;SDS011;7922;43.622;1.476;2024-03-02T12:47:04;6.20;;;2.43;;
15645;SDS011;7922;43.622;1.476;2024-03-02T12:49:30;5.30;;;2.47;;
15645;SDS011;7922;43.622;1.476;2024-03-02T12:51:55;4.53;;;2.33;;
15645;SDS011;7922;43.622;1.476;2024-03-02T12:54:21;3.17;;;2.10;;
15645;SDS011;7922;43.622;1.476;2024-03-02T12:56:47;5.53;;;2.40;;
15645;SDS011;7922;43.622;1.476;2024-03-02T12:59:19;4.77;;;2.53;;
15645;SDS011;7922;43.622;1.476;2024-03-02T13:01:52;2.63;;;2.30;;
15645;SDS011;7922;43.622;1.476;2024-03-02T13:04:21;3.50;;;2.13;;
15645;SDS011;7922;43.622;1.476;2024-03-02T13:06:50;4.27;;;2.23;;
15645;SDS011;7922;43.622;1.476;2024-03-02T13:09:16;5.10;;;2.43;;
15645;SDS011;7922;43.622;1.476;2024-03-02T13:11:41;4.27;;;1.97;;
15645;SDS011;7922;43.622;1.476;2024-03-02T13:14:07;4.73;;;2.20;;
15645;SDS011;7922;43.622;1.476;2024-03-02T13:16:35;5.83;;;2.60;;
15645;SDS011;7922;43.622;1.476;2024-03-02T13:19:03;4.97;;;2.40;;
15645;SDS011;7922;43.622;1.476;2024-03-02T13:21:29;5.80;;;2.57;;
15645;SDS011;7922;43.622;1.476;2024-03-02T13:23:54;4.37;;;2.53;;
15645;SDS011;7922;43.622;1.476;2024-03-02T13:26:19;4.77;;;2.40;;
15645;SDS011;7922;43.622;1.476;2024-03-02T13:28:44;5.00;;;2.30;;
15645;SDS011;7922;43.622;1.476;2024-03-02T13:31:10;5.03;;;2.63;;
15645;SDS011;7922;43.622;1.476;2024-03-02T13:33:35;4.53;;;2.37;;
15645;SDS011;7922;43.622;1.476;2024-03-02T13:36:00;3.07;;;2.40;;
15645;SDS011;7922;43.622;1.476;2024-03-02T13:38:26;4.50;;;2.80;;
15645;SDS011;7922;43.622;1.476;2024-03-02T13:40:51;5.60;;;2.60;;
15645;SDS011;7922;43.622;1.476;2024-03-02T13:43:16;5.57;;;2.27;;
15645;SDS011;7922;43.622;1.476;2024-03-02T13:45:42;3.93;;;2.27;;
15645;SDS011;7922;43.622;1.476;2024-03-02T13:48:08;6.30;;;2.07;;
15645;SDS011;7922;43.622;1.476;2024-03-02T13:50:33;5.57;;;2.33;;
15645;SDS011;7922;43.622;1.476;2024-03-02T13:52:58;5.70;;;2.30;;
15645;SDS011;7922;43.622;1.476;2024-03-02T13:55:24;5.77;;;2.40;;
15645;SDS011;7922;43.622;1.476;2024-03-02T13:57:49;4.63;;;2.37;;
15645;SDS011;7922;43.622;1.476;2024-03-02T14:00:14;4.47;;;2.70;;
15645;SDS011;7922;43.622;1.476;2024-03-02T14:02:40;4.83;;;2.33;;
15645;SDS011;7922;43.622;1.476;2024-03-02T14:05:05;5.10;;;2.33;;
15645;SDS011;7922;43.622;1.476;2024-03-02T14:07:31;5.87;;;2.63;;
15645;SDS011;7922;43.622;1.476;2024-03-02T14:09:56;3.90;;;2.30;;
15645;SDS011;7922;43.622;1.476;2024-03-02T14:12:22;7.27;;;2.23;;
15645;SDS011;7922;43.622;1.476;2024-03-02T14:14:47;6.30;;;2.23;;
15645;SDS011;7922;43.622;1.476;2024-03-02T14:17:12;4.80;;;2.00;;
15645;SDS011;7922;43.622;1.476;2024-03-02T14:19:38;4.80;;;2.13;;
15645;SDS011;7922;43.622;1.476;2024-03-02T14:22:03;5.23;;;1.97;;
15645;SDS011;7922;43.622;1.476;2024-03-02T14:24:28;4.77;;;1.97;;
15645;SDS011;7922;43.622;1.476;2024-03-02T14:26:54;7.30;;;2.83;;
15645;SDS011;7922;43.622;1.476;2024-03-02T14:29:19;4.43;;;2.33;;
15645;SDS011;7922;43.622;1.476;2024-03-02T14:31:44;8.30;;;2.40;;
15645;SDS011;7922;43.622;1.476;2024-03-02T14:34:10;6.77;;;2.10;;
15645;SDS011;7922;43.622;1.476;2024-03-02T14:36:35;4.97;;;2.20;;
15645;SDS011;7922;43.622;1.476;2024-03-02T14:39:01;4.83;;;2.03;;
15645;SDS011;7922;43.622;1.476;2024-03-02T14:41:26;5.73;;;2.43;;
15645;SDS011;7922;43.622;1.476;2024-03-02T14:43:51;4.37;;;2.20;;
15645;SDS011;7922;43.622;1.476;2024-03-02T14:46:17;4.87;;;2.50;;
15645;SDS011;7922;43.622;1.476;2024-03-02T14:48:43;5.13;;;2.30;;
15645;SDS011;7922;43.622;1.476;2024-03-02T14:51:10;6.40;;;2.50;;
15645;SDS011;7922;43.622;1.476;2024-03-02T14:53:35;3.30;;;2.10;;
15645;SDS011;7922;43.622;1.476;2024-03-02T14:56:01;3.17;;;2.10;;
15645;SDS011;7922;43.622;1.476;2024-03-02T14:58:26;3.97;;;2.10;;
15645;SDS011;7922;43.622;1.476;2024-03-02T15:00:51;4.17;;;2.10;;
15645;SDS011;7922;43.622;1.476;2024-03-02T15:03:18;4.53;;;1.93;;
15645;SDS011;7922;43.622;1.476;2024-03-02T15:05:43;6.40;;;2.20;;
15645;SDS011;7922;43.622;1.476;2024-03-02T15:08:08;6.97;;;2.40;;